createdAt,value
2018-04-25T00:00:06.087Z,100245.91
2018-04-25T00:02:35.342Z,100243.39
2018-04-25T00:05:06.021Z,100238.45
2018-04-25T00:07:35.298Z,100238.69
2018-04-25T00:10:05.528Z,100245.84
2018-04-25T00:12:34.435Z,100240.66
2018-04-25T00:15:04.888Z,100232.07
2018-04-25T00:17:34.195Z,100225.88
2018-04-25T00:20:05.116Z,100227.41
2018-04-25T00:22:34.407Z,100223.72
2018-04-25T00:25:04.840Z,100226.80
2018-04-25T00:27:34.525Z,100224.73
2018-04-25T00:30:04.822Z,100231.30
2018-04-25T00:32:34.175Z,100222.12
2018-04-25T00:35:04.731Z,100218.72
2018-04-25T00:37:34.217Z,100215.40
2018-04-25T00:40:04.462Z,100214.55
2018-04-25T00:42:33.479Z,100212.12
2018-04-25T00:45:03.907Z,100213.44
2018-04-25T00:47:32.859Z,100209.36
2018-04-25T00:50:04.816Z,100209.87
2018-04-25T00:52:34.623Z,100202.89
2018-04-25T00:55:05.925Z,100205.67
2018-04-25T00:57:34.981Z,100203.45
2018-04-25T01:00:05.384Z,100201.73
2018-04-25T01:02:34.559Z,100194.80
2018-04-25T01:05:04.179Z,100195.48
2018-04-25T01:07:33.470Z,100195.98
2018-04-25T01:10:04.385Z,100190.88
2018-04-25T01:12:33.348Z,100192.06
2018-04-25T01:15:03.020Z,100183.75
2018-04-25T01:17:32.045Z,100188.65
2018-04-25T01:20:03.752Z,100186.89
2018-04-25T01:22:33.078Z,100181.33
2018-04-25T01:25:03.818Z,100183.55
2018-04-25T01:27:32.910Z,100176.62
2018-04-25T01:30:03.225Z,100167.81
2018-04-25T01:32:32.839Z,100164.09
2018-04-25T01:35:05.023Z,100168.06
2018-04-25T01:37:34.712Z,100156.56
2018-04-25T01:40:06.927Z,100155.39
2018-04-25T01:42:36.630Z,100148.20
2018-04-25T01:45:06.470Z,100155.98
2018-04-25T01:47:35.969Z,100158.98
2018-04-25T01:50:06.482Z,100155.20
2018-04-25T01:52:46.185Z,100161.64
2018-04-25T01:55:26.330Z,100155.14
2018-04-25T01:58:07.050Z,100152.20
2018-04-25T02:00:47.256Z,100148.83
2018-04-25T02:03:18.002Z,100148.98
2018-04-25T02:05:47.839Z,100145.95
2018-04-25T02:08:17.078Z,100147.79
2018-04-25T02:10:46.265Z,100144.00
2018-04-25T02:13:15.567Z,100144.60
2018-04-25T02:15:44.516Z,100146.39
2018-04-25T02:18:14.108Z,100144.23
2018-04-25T02:20:43.361Z,100141.70
2018-04-25T02:23:13.540Z,100141.42
2018-04-25T02:25:42.471Z,100129.69
2018-04-25T02:28:12.521Z,100123.06
2018-04-25T02:30:41.508Z,100121.44
2018-04-25T02:33:11.914Z,100125.45
2018-04-25T02:35:40.910Z,100118.66
2018-04-25T02:38:09.885Z,100111.27
2018-04-25T02:40:39.220Z,100124.81
2018-04-25T02:43:08.208Z,100123.55
2018-04-25T02:45:37.588Z,100119.38
2018-04-25T02:48:07.097Z,100125.66
2018-04-25T02:50:36.130Z,100117.91
2018-04-25T02:53:06.366Z,100117.50
2018-04-25T02:55:35.276Z,100115.58
2018-04-25T02:58:06.748Z,100113.39
2018-04-25T03:00:36.010Z,100110.67
2018-04-25T03:03:06.392Z,100105.72
2018-04-25T03:05:35.611Z,100103.93
2018-04-25T03:08:06.515Z,100099.08
2018-04-25T03:10:35.463Z,100106.76
2018-04-25T03:13:04.795Z,100110.65
2018-04-25T03:15:34.186Z,100109.06
2018-04-25T03:18:05.014Z,100101.05
2018-04-25T03:20:33.906Z,100099.21
2018-04-25T03:23:05.764Z,100094.68
2018-04-25T03:25:36.262Z,100095.16
2018-04-25T03:28:06.474Z,100090.20
2018-04-25T03:30:35.391Z,100091.91
2018-04-25T03:33:05.176Z,100088.37
2018-04-25T03:35:34.151Z,100088.80
2018-04-25T03:38:06.942Z,100088.50
2018-04-25T03:40:36.079Z,100092.89
2018-04-25T03:43:07.185Z,100099.77
2018-04-25T03:45:36.162Z,100096.48
2018-04-25T03:48:05.823Z,100100.23
2018-04-25T03:50:35.125Z,100117.08
2018-04-25T03:53:05.964Z,100120.92
2018-04-25T03:55:35.238Z,100116.27
2018-04-25T03:58:06.654Z,100116.11
2018-04-25T04:00:35.659Z,100115.67
2018-04-25T04:03:05.871Z,100116.19
2018-04-25T04:05:35.096Z,100117.08
2018-04-25T04:08:06.588Z,100119.56
2018-04-25T04:10:35.508Z,100125.88
2018-04-25T04:13:05.391Z,100121.56
2018-04-25T04:15:34.233Z,100118.41
2018-04-25T04:18:04.849Z,100122.64
2018-04-25T04:20:34.094Z,100130.78
2018-04-25T04:23:04.224Z,100130.73
2018-04-25T04:25:33.144Z,100134.75
2018-04-25T04:28:04.321Z,100129.33
2018-04-25T04:30:33.288Z,100127.16
2018-04-25T04:33:02.948Z,100127.58
2018-04-25T04:35:31.920Z,100128.01
2018-04-25T04:38:02.182Z,100132.19
2018-04-25T04:40:31.716Z,100135.77
2018-04-25T04:43:01.525Z,100144.02
2018-04-25T04:45:30.571Z,100144.31
2018-04-25T04:48:00.262Z,100140.69
2018-04-25T04:50:29.669Z,100147.12
2018-04-25T04:53:00.170Z,100139.70
2018-04-25T04:55:30.316Z,100142.69
2018-04-25T04:57:59.863Z,100138.42
2018-04-25T05:00:28.969Z,100140.42
2018-04-25T05:02:58.266Z,100130.86
2018-04-25T05:05:29.275Z,100130.98
2018-04-25T05:07:59.362Z,100140.97
2018-04-25T05:10:28.846Z,100143.70
2018-04-25T05:12:58.047Z,100143.89
2018-04-25T05:15:27.031Z,100143.80
2018-04-25T05:17:56.397Z,100142.17
2018-04-25T05:20:25.362Z,100136.88
2018-04-25T05:22:54.308Z,100136.70
2018-04-25T05:25:23.534Z,100138.66
2018-04-25T05:27:52.710Z,100142.72
2018-04-25T05:30:21.722Z,100142.67
2018-04-25T05:32:51.076Z,100144.59
2018-04-25T05:35:20.007Z,100136.73
2018-04-25T05:37:48.944Z,100136.67
2018-04-25T05:40:19.672Z,100136.64
2018-04-25T05:42:48.641Z,100140.75
2018-04-25T05:45:17.887Z,100141.17
2018-04-25T05:47:47.732Z,100149.64
2018-04-25T05:50:16.661Z,100147.17
2018-04-25T05:52:45.604Z,100144.47
2018-04-25T05:55:15.088Z,100148.36
2018-04-25T05:57:44.694Z,100143.95
2018-04-25T06:00:13.696Z,100152.92
2018-04-25T06:02:42.975Z,100153.30
2018-04-25T06:05:11.992Z,100149.88
2018-04-25T06:07:41.226Z,100150.19
2018-04-25T06:10:12.563Z,100155.62
2018-04-25T06:12:41.935Z,100156.61
2018-04-25T06:15:14.676Z,100150.98
2018-04-25T06:17:43.996Z,100154.22
2018-04-25T06:20:13.138Z,100155.13
2018-04-25T06:22:42.382Z,100159.37
2018-04-25T06:25:11.525Z,100159.61
2018-04-25T06:27:40.518Z,100164.30
2018-04-25T06:30:09.596Z,100161.51
2018-04-25T06:32:39.031Z,100164.82
2018-04-25T06:35:08.385Z,100166.15
2018-04-25T06:37:37.582Z,100161.84
2018-04-25T06:40:07.292Z,100163.69
2018-04-25T06:42:36.431Z,100167.86
2018-04-25T06:45:05.412Z,100165.53
2018-04-25T06:47:34.740Z,100162.16
2018-04-25T06:50:05.927Z,100158.42
2018-04-25T06:52:34.994Z,100155.26
2018-04-25T06:55:06.593Z,100148.91
2018-04-25T06:57:35.580Z,100143.83
2018-04-25T07:00:05.671Z,100143.58
2018-04-25T07:02:34.907Z,100137.34
2018-04-25T07:05:04.870Z,100138.30
2018-04-25T07:07:33.843Z,100135.62
2018-04-25T07:10:05.345Z,100135.84
2018-04-25T07:12:34.245Z,100141.58
2018-04-25T07:15:06.197Z,100148.62
2018-04-25T07:17:35.138Z,100147.94
2018-04-25T07:20:08.312Z,100149.13
2018-04-25T07:22:37.584Z,100150.31
2018-04-25T07:25:09.128Z,100161.57
2018-04-25T07:27:38.120Z,100158.16
2018-04-25T07:30:07.683Z,100163.06
2018-04-25T07:32:38.307Z,100163.01
2018-04-25T07:35:08.587Z,100174.35
2018-04-25T07:37:39.583Z,100176.38
2018-04-25T07:40:12.574Z,100179.63
2018-04-25T07:42:43.015Z,100166.73
2018-04-25T07:45:14.426Z,100179.37
2018-04-25T07:47:45.791Z,100184.27
2018-04-25T07:50:18.446Z,100182.42
2018-04-25T07:52:55.467Z,100183.71
2018-04-25T07:55:30.118Z,100184.82
2018-04-25T07:58:04.166Z,100193.11
2018-04-25T08:00:37.501Z,100190.02
2018-04-25T08:03:09.747Z,100194.72
2018-04-25T08:05:39.046Z,100204.23
2018-04-25T08:08:09.156Z,100203.59
2018-04-25T08:10:38.159Z,100207.33
2018-04-25T08:13:18.023Z,100202.10
2018-04-25T08:20:04.431Z,100211.20
2018-04-25T08:22:33.343Z,100204.81
2018-04-25T08:25:03.413Z,100208.48
2018-04-25T08:27:32.351Z,100195.85
2018-04-25T08:30:03.306Z,100201.79
2018-04-25T08:32:32.579Z,100197.81
2018-04-25T08:35:02.926Z,100207.73
2018-04-25T08:37:31.949Z,100207.99
2018-04-25T08:40:04.243Z,100219.05
2018-04-25T08:42:33.446Z,100211.68
2018-04-25T08:45:04.198Z,100216.05
2018-04-25T08:47:33.435Z,100223.65
2018-04-25T08:50:05.052Z,100226.25
2018-04-25T08:52:34.116Z,100226.61
2018-04-25T08:55:04.259Z,100243.86
2018-04-25T08:57:33.198Z,100239.43
2018-04-25T09:00:04.131Z,100231.58
2018-04-25T09:02:33.423Z,100231.46
2018-04-25T09:05:04.346Z,100231.83
2018-04-25T09:07:33.430Z,100233.53
2018-04-25T09:10:04.370Z,100223.95
2018-04-25T09:12:33.235Z,100227.46
2018-04-25T09:15:04.502Z,100227.25
2018-04-25T09:17:33.642Z,100222.23
2018-04-25T09:20:07.160Z,100220.69
2018-04-25T09:22:36.062Z,100225.62
2018-04-25T09:25:05.771Z,100221.08
2018-04-25T09:27:34.680Z,100222.11
2018-04-25T09:30:05.331Z,100222.68
2018-04-25T09:32:34.551Z,100221.34
2018-04-25T09:35:06.351Z,100219.55
2018-04-25T09:37:35.335Z,100211.81
2018-04-25T09:40:05.431Z,100210.72
2018-04-25T09:42:34.350Z,100219.05
2018-04-25T09:45:04.507Z,100214.99
2018-04-25T09:47:33.706Z,100204.66
2018-04-25T09:50:04.517Z,100220.11
2018-04-25T09:52:33.410Z,100219.73
2018-04-25T09:55:03.495Z,100221.90
2018-04-25T09:57:32.452Z,100222.11
2018-04-25T10:00:05.906Z,100217.41
2018-04-25T10:02:36.632Z,100223.64
2018-04-25T10:05:05.611Z,100226.19
2018-04-25T10:07:34.622Z,100228.91
2018-04-25T10:10:05.543Z,100221.75
2018-04-25T10:12:34.440Z,100235.78
2018-04-25T10:15:03.794Z,100224.77
2018-04-25T10:17:32.961Z,100223.09
2018-04-25T10:20:03.235Z,100219.05
2018-04-25T10:22:32.883Z,100211.09
2018-04-25T10:25:03.111Z,100220.95
2018-04-25T10:27:32.029Z,100211.14
2018-04-25T10:30:00.997Z,100207.75
2018-04-25T10:32:30.478Z,100217.98
2018-04-25T10:34:59.688Z,100220.66
2018-04-25T10:37:28.679Z,100215.32
2018-04-25T10:39:59.623Z,100217.66
2018-04-25T10:42:30.339Z,100220.61
2018-04-25T10:44:59.242Z,100222.85
2018-04-25T10:47:29.127Z,100207.96
2018-04-25T10:49:58.047Z,100210.42
2018-04-25T10:52:27.307Z,100214.46
2018-04-25T10:54:56.740Z,100203.11
2018-04-25T10:57:26.016Z,100194.86
2018-04-25T10:59:56.746Z,100203.27
2018-04-25T11:02:25.714Z,100206.69
2018-04-25T11:04:54.744Z,100209.55
2018-04-25T11:07:24.189Z,100202.53
2018-04-25T11:09:53.084Z,100213.99
2018-04-25T11:12:22.171Z,100198.72
2018-04-25T11:14:51.527Z,100193.03
2018-04-25T11:17:20.484Z,100196.50
2018-04-25T11:19:49.403Z,100230.08
2018-04-25T11:22:19.665Z,100219.33
2018-04-25T11:24:48.580Z,100211.55
2018-04-25T11:27:18.777Z,100218.27
2018-04-25T11:29:47.751Z,100229.33
2018-04-25T11:32:17.799Z,100217.98
2018-04-25T11:34:46.659Z,100225.42
2018-04-25T11:37:15.878Z,100215.79
2018-04-25T11:39:44.768Z,100254.02
2018-04-25T11:42:16.774Z,100228.73
2018-04-25T11:44:45.997Z,100254.17
2018-04-25T11:47:15.478Z,100224.09
2018-04-25T11:49:44.470Z,100231.01
2018-04-25T11:52:13.849Z,100242.00
2018-04-25T11:54:42.992Z,100239.49
2018-04-25T11:57:11.906Z,100237.83
2018-04-25T11:59:41.214Z,100250.37
2018-04-25T12:02:10.239Z,100244.92
2018-04-25T12:04:39.179Z,100249.63
2018-04-25T12:07:08.367Z,100231.23
2018-04-25T12:09:37.340Z,100232.56
2018-04-25T12:12:06.842Z,100244.31
2018-04-25T12:14:35.704Z,100246.41
2018-04-25T12:17:05.216Z,100228.16
2018-04-25T12:19:34.407Z,100228.17
2018-04-25T12:22:05.791Z,100237.63
2018-04-25T12:24:34.710Z,100252.55
2018-04-25T12:27:05.034Z,100224.94
2018-04-25T12:29:34.013Z,100239.25
2018-04-25T12:32:05.810Z,100242.13
2018-04-25T12:34:34.957Z,100242.28
2018-04-25T12:37:04.691Z,100236.66
2018-04-25T12:39:33.817Z,100238.81
2018-04-25T12:42:04.791Z,100239.74
2018-04-25T12:44:33.787Z,100250.77
2018-04-25T12:47:03.960Z,100251.16
2018-04-25T12:49:33.511Z,100244.05
2018-04-25T12:52:05.258Z,100260.80
2018-04-25T12:54:34.116Z,100267.57
2018-04-25T12:57:05.460Z,100276.81
2018-04-25T12:59:34.375Z,100269.88
2018-04-25T13:02:05.879Z,100264.25
2018-04-25T13:04:49.404Z,100265.74
2018-04-25T13:07:18.315Z,100260.44
2018-04-25T13:09:47.516Z,100280.72
2018-04-25T13:12:16.462Z,100269.08
2018-04-25T13:14:45.400Z,100290.88
2018-04-25T13:17:14.675Z,100306.22
2018-04-25T13:19:43.653Z,100303.27
2018-04-25T13:22:13.386Z,100297.56
2018-04-25T13:24:43.728Z,100294.97
2018-04-25T13:27:12.643Z,100298.30
2018-04-25T13:29:41.819Z,100288.66
2018-04-25T13:32:11.050Z,100285.12
2018-04-25T13:34:40.051Z,100285.44
2018-04-25T13:37:09.109Z,100283.46
2018-04-25T13:39:39.489Z,100279.42
2018-04-25T13:42:08.383Z,100275.82
2018-04-25T13:44:37.341Z,100273.66
2018-04-25T13:47:06.278Z,100277.36
2018-04-25T13:49:35.231Z,100278.44
2018-04-25T13:52:05.643Z,100271.36
2018-04-25T13:54:34.605Z,100270.01
2018-04-25T13:57:05.721Z,100270.01
2018-04-25T13:59:34.697Z,100264.06
2018-04-25T14:02:05.804Z,100249.89
2018-04-25T14:04:34.987Z,100258.75
2018-04-25T14:07:05.328Z,100256.24
2018-04-25T14:09:34.255Z,100242.83
2018-04-25T14:12:05.034Z,100248.75
2018-04-25T14:14:33.954Z,100242.83
2018-04-25T14:17:04.776Z,100227.89
2018-04-25T14:19:34.015Z,100238.64
2018-04-25T14:22:04.595Z,100221.92
2018-04-25T14:24:33.568Z,100219.89
2018-04-25T14:27:04.132Z,100213.71
2018-04-25T14:29:33.062Z,100206.22
2018-04-25T14:32:03.433Z,100215.36
2018-04-25T14:34:32.588Z,100215.95
2018-04-25T14:37:02.897Z,100236.22
2018-04-25T14:39:31.802Z,100217.98
2018-04-25T14:42:06.006Z,100211.41
2018-04-25T14:44:34.915Z,100222.45
2018-04-25T14:47:04.587Z,100213.52
2018-04-25T14:49:33.816Z,100215.88
2018-04-25T14:52:03.450Z,100219.55
2018-04-25T14:54:32.400Z,100209.85
2018-04-25T14:57:02.801Z,100207.13
2018-04-25T14:59:31.843Z,100197.56
2018-04-25T15:02:00.876Z,100205.09
2018-04-25T15:04:32.293Z,100200.91
2018-04-25T15:07:03.864Z,100195.61
2018-04-25T15:09:32.751Z,100196.84
2018-04-25T15:12:04.131Z,100200.91
2018-04-25T15:14:33.142Z,100198.43
2018-04-25T15:17:03.473Z,100183.84
2018-04-25T15:19:32.710Z,100186.39
2018-04-25T15:22:03.614Z,100198.53
2018-04-25T15:24:32.539Z,100195.61
2018-04-25T15:27:03.786Z,100188.95
2018-04-25T15:29:32.799Z,100183.72
2018-04-25T15:32:04.929Z,100181.92
2018-04-25T15:34:34.996Z,100181.59
2018-04-25T15:37:04.175Z,100180.80
2018-04-25T15:39:33.112Z,100175.20
2018-04-25T15:42:04.112Z,100171.25
2018-04-25T15:44:33.081Z,100171.58
2018-04-25T15:47:03.020Z,100180.30
2018-04-25T15:49:32.321Z,100171.53
2018-04-25T15:52:04.499Z,100169.52
2018-04-25T15:54:36.729Z,100171.70
2018-04-25T15:57:06.303Z,100172.13
2018-04-25T15:59:48.783Z,100183.03
2018-04-25T16:27:06.631Z,100217.81
2018-04-25T16:29:35.231Z,100212.47
2018-04-25T16:32:05.392Z,100224.69
2018-04-25T16:34:36.425Z,100225.79
2018-04-25T18:24:18.451Z,100292.17
2018-04-25T18:26:48.744Z,100291.78
2018-04-25T18:29:17.683Z,100292.74
2018-04-25T18:31:46.408Z,100295.29
2018-04-25T18:34:15.109Z,100303.62
2018-04-25T18:36:52.244Z,100303.16
2018-04-25T18:39:20.822Z,100303.83
2018-04-25T18:41:53.830Z,100314.14
2018-04-25T18:44:22.394Z,100307.97
2018-04-25T18:46:58.321Z,100316.73
2018-04-25T18:49:30.070Z,100324.73
2018-04-25T18:52:03.941Z,100328.24
2018-04-25T18:54:32.729Z,100330.70
2018-04-25T18:57:01.363Z,100341.47
2018-04-25T18:59:30.225Z,100333.39
2018-04-25T19:01:58.884Z,100344.38
2018-04-25T19:04:27.494Z,100351.66
2018-04-25T19:07:05.279Z,100351.84
2018-04-25T19:09:33.888Z,100351.18
2018-04-25T19:12:04.931Z,100356.06
2018-04-25T19:14:34.928Z,100365.17
2018-04-25T19:17:03.920Z,100376.63
2018-04-25T19:19:32.392Z,100381.69
2018-04-25T19:22:01.001Z,100389.86
2018-04-25T19:24:29.516Z,100387.89
2018-04-25T19:26:58.008Z,100379.69
2018-04-25T19:29:27.001Z,100390.77
2018-04-25T19:31:56.111Z,100393.77
2018-04-25T19:34:24.943Z,100394.86
2018-04-25T19:36:54.483Z,100403.20
2018-04-25T19:39:28.508Z,100398.06
2018-04-25T19:42:04.102Z,100402.06
2018-04-25T19:44:32.948Z,100403.69
2018-04-25T19:47:01.534Z,100411.24
2018-04-25T19:49:30.391Z,100407.09
2018-04-25T19:51:58.929Z,100408.00
2018-04-25T19:54:27.456Z,100405.59
2018-04-25T19:56:59.950Z,100402.13
2018-04-25T19:59:28.583Z,100406.27
2018-04-25T20:02:03.363Z,100413.57
2018-04-25T20:04:32.659Z,100421.86
2018-04-25T20:07:03.101Z,100419.31
2018-04-25T20:09:32.468Z,100412.23
2018-04-25T20:12:03.418Z,100412.05
2018-04-25T20:14:31.966Z,100413.49
2018-04-25T20:17:00.950Z,100407.68
2018-04-25T20:19:31.539Z,100394.92
2018-04-25T20:22:00.543Z,100393.09
2018-04-25T20:24:29.288Z,100401.89
2018-04-25T20:26:58.949Z,100400.89
2018-04-25T20:29:28.115Z,100399.44
2018-04-25T20:31:57.366Z,100395.77
2018-04-25T20:34:25.929Z,100401.47
2018-04-25T20:36:55.250Z,100404.03
2018-04-25T20:39:23.975Z,100406.48
2018-04-25T20:41:53.156Z,100400.80
2018-04-25T20:44:28.249Z,100402.18
2018-04-25T20:46:58.373Z,100395.36
2018-04-25T20:51:54.092Z,100408.66
2018-04-25T20:54:23.191Z,100417.84
2018-04-25T20:56:51.956Z,100421.03
2018-04-25T20:59:20.691Z,100421.17
2018-04-25T21:01:49.715Z,100424.25
2018-04-25T21:04:18.727Z,100421.56
2018-04-25T21:06:48.399Z,100415.77
2018-04-25T21:09:17.808Z,100411.49
2018-04-25T21:11:52.737Z,100417.67
2018-04-25T21:14:21.336Z,100422.77
2018-04-25T21:16:50.500Z,100430.73
2018-04-25T21:19:19.319Z,100427.25
2018-04-25T21:21:48.892Z,100433.82
2018-04-25T21:24:17.914Z,100428.77
2018-04-25T21:26:46.882Z,100430.09
2018-04-25T21:29:16.643Z,100439.44
2018-04-25T21:31:45.347Z,100438.28
2018-04-25T21:34:14.426Z,100441.92
2018-04-25T21:36:47.062Z,100437.22
2018-04-25T21:39:15.970Z,100444.84
2018-04-25T21:41:46.726Z,100443.23
2018-04-25T21:44:15.367Z,100457.55
2018-04-25T21:46:44.035Z,100464.58
2018-04-25T21:49:12.911Z,100460.40
2018-04-25T21:51:41.516Z,100460.51
2018-04-25T21:54:10.488Z,100458.06
2018-04-25T21:56:39.617Z,100459.45
2018-04-25T21:59:20.263Z,100457.02
2018-04-25T22:01:50.675Z,100463.63
2018-04-25T22:04:19.823Z,100462.52
2018-04-25T22:06:48.411Z,100467.84
2018-04-25T22:09:18.018Z,100473.16
2018-04-25T22:11:48.065Z,100466.55
2018-04-25T22:14:16.607Z,100451.48
2018-04-25T22:16:52.900Z,100447.37
2018-04-25T22:19:21.510Z,100468.72
2018-04-25T22:22:00.303Z,100479.08
2018-04-25T22:24:28.837Z,100482.06
2018-04-25T22:26:57.400Z,100497.08
2018-04-25T22:29:27.331Z,100501.90
2018-04-25T22:31:55.947Z,100501.83
2018-04-25T22:34:28.440Z,100510.14
2018-04-25T22:36:57.365Z,100506.27
2018-04-25T22:39:25.978Z,100505.37
2018-04-25T22:41:54.900Z,100506.96
2018-04-25T22:44:28.905Z,100500.77
2018-04-25T22:46:57.499Z,100504.36
2018-04-25T22:49:32.262Z,100514.27
2018-04-25T22:52:01.103Z,100513.30
2018-04-25T22:54:31.861Z,100519.83
2018-04-25T22:57:01.084Z,100528.97
2018-04-25T22:59:30.275Z,100535.44
2018-04-25T23:01:59.588Z,100537.80
2018-04-25T23:04:28.439Z,100538.34
2018-04-25T23:07:00.405Z,100531.30
2018-04-25T23:09:30.099Z,100527.65
2018-04-25T23:11:58.755Z,100522.55
2018-04-25T23:14:27.890Z,100511.51
2018-04-25T23:16:57.610Z,100524.47
2018-04-25T23:19:26.217Z,100518.98
2018-04-25T23:24:35.470Z,100544.82
2018-04-25T23:27:06.049Z,100538.91
2018-04-25T23:29:35.082Z,100536.46
2018-04-25T23:32:08.270Z,100530.27
2018-04-25T23:34:36.831Z,100539.30
2018-04-25T23:37:06.508Z,100540.03
2018-04-25T23:39:35.061Z,100539.55
2018-04-25T23:42:06.135Z,100537.58
2018-04-25T23:44:34.879Z,100549.15
2018-04-25T23:47:07.977Z,100534.73
2018-04-25T23:49:37.126Z,100530.52
2018-04-25T23:52:05.848Z,100532.22
2018-04-25T23:54:34.830Z,100525.31
2018-04-25T23:57:03.959Z,100525.92
2018-04-25T23:59:32.547Z,100516.53
